Terminal Aerodrome Forecast
Issued by NWS Cleveland, OH

Home | Current Version | Previous Version | Text Only | Print | Product List | Glossary Off
Versions: 1 2 3 4 5 6 7 8 9 10 11 12 13 14 15 16 17 18 19 20 21 22

000
FTUS41 KCLE 211518 AAA
TAFTOL
TAF AMD
KTOL 211518Z 2115/2212 VRB04KT P6SM OVC070
     FM211800 24006KT P6SM OVC035
      TEMPO 2118/2122 6SM -SHRA
     FM212200 22004KT P6SM OVC025
     FM220400 20004KT 3SM BR OVC008=

USA.gov is the U.S. government's official web portal to all federal, state and local government web resources and services.